Time;durP1;ratioP1;P1;durP2;ratioP2;P2;SDS_P1;SDS_P2;PMS_P1;PMS_P2;Temp;Humidity;BMP_temperature;BMP_pressure;BME280_temperature;BME280_humidity;BME280_pressure;Samples;Min_cycle;Max_cycle;Signal;HPM_P1;HPM_P2
2022/12/23 00:00:15;;;;;;;1.52;1.40;;;17.70;49.50;;;;;;5078538;28;20194;-76
2022/12/23 00:02:43;;;;;;;1.80;1.40;;;17.60;49.40;;;;;;5078043;28;20278;-77
2022/12/23 00:05:10;;;;;;;1.40;1.30;;;17.60;49.40;;;;;;5078286;28;20227;-77
2022/12/23 00:07:39;;;;;;;1.83;1.38;;;17.60;49.40;;;;;;5078012;28;20225;-77
2022/12/23 00:10:08;;;;;;;2.22;1.40;;;17.60;49.50;;;;;;5077994;28;20676;-77
2022/12/23 00:15:20;;;;;;;1.73;1.40;;;17.60;50.10;;;;;;5078177;28;20182;-77
2022/12/23 00:17:47;;;;;;;2.10;1.40;;;17.60;49.40;;;;;;5084272;28;20234;-77
2022/12/23 00:20:14;;;;;;;1.30;1.20;;;17.60;49.50;;;;;;5094382;28;20194;-77
2022/12/23 00:25:43;;;;;;;1.30;1.20;;;17.50;49.30;;;;;;5071820;28;20276;-77
2022/12/23 00:28:11;;;;;;;1.95;1.40;;;17.60;49.70;;;;;;5078110;28;20237;-77
2022/12/23 00:30:38;;;;;;;1.80;1.40;;;17.50;49.70;;;;;;5078559;28;20202;-77
2022/12/23 00:33:05;;;;;;;1.75;1.55;;;17.50;49.70;;;;;;5078294;28;20289;-77
2022/12/23 00:35:32;;;;;;;1.30;1.20;;;17.50;49.50;;;;;;5077664;28;20221;-77
2022/12/23 00:37:59;;;;;;;1.77;1.25;;;17.50;49.50;;;;;;5077746;28;20222;-77
2022/12/23 00:43:12;;;;;;;1.40;1.30;;;17.50;49.70;;;;;;5077616;28;20703;-77
2022/12/23 00:45:39;;;;;;;1.40;1.30;;;17.50;49.90;;;;;;5077722;28;20190;-77
2022/12/23 00:50:52;;;;;;;2.17;1.50;;;17.50;49.90;;;;;;5077661;28;20198;-77
2022/12/23 00:53:19;;;;;;;1.65;1.42;;;17.50;49.90;;;;;;5078018;28;20194;-77
2022/12/23 00:55:46;;;;;;;1.20;1.10;;;17.40;49.70;;;;;;5078262;28;20273;-77
2022/12/23 00:58:15;;;;;;;1.60;1.30;;;17.40;50.00;;;;;;5077537;28;20226;-77
2022/12/23 01:06:12;;;;;;;1.33;1.13;;;17.40;50.00;;;;;;5077483;28;20641;-77
2022/12/23 01:08:39;;;;;;;1.30;1.02;;;17.40;49.90;;;;;;5077198;28;20217;-76
2022/12/23 01:11:08;;;;;;;1.40;1.20;;;17.40;50.20;;;;;;5077739;28;20194;-77
2022/12/23 01:13:36;;;;;;;1.75;1.30;;;17.40;50.00;;;;;;5077626;28;20194;-76
2022/12/23 01:16:05;;;;;;;1.60;1.20;;;17.40;50.10;;;;;;5078062;28;20292;-77
2022/12/23 01:18:33;;;;;;;1.63;1.30;;;17.40;50.30;;;;;;5077717;28;20218;-77
2022/12/23 01:21:02;;;;;;;1.20;1.10;;;17.30;49.90;;;;;;5077474;28;20202;-77
2022/12/23 01:23:29;;;;;;;1.33;1.20;;;17.30;50.00;;;;;;5076691;28;20251;-77
2022/12/23 01:25:57;;;;;;;1.35;1.20;;;17.30;50.00;;;;;;5076488;28;20270;-77
2022/12/23 01:28:24;;;;;;;1.40;1.20;;;17.30;50.20;;;;;;5094936;28;20210;-77
2022/12/23 01:30:53;;;;;;;1.30;1.20;;;17.30;50.10;;;;;;5076442;28;20205;-77
2022/12/23 01:33:20;;;;;;;1.67;1.30;;;17.30;50.00;;;;;;5077212;28;20194;-77
2022/12/23 01:35:47;;;;;;;1.30;1.20;;;17.30;50.20;;;;;;5076307;28;20625;-77
2022/12/23 01:38:15;;;;;;;1.65;1.40;;;17.30;50.20;;;;;;5075951;28;20218;-77
2022/12/23 01:40:43;;;;;;;1.17;1.08;;;17.30;50.30;;;;;;5076145;28;20202;-77
2022/12/23 01:43:13;;;;;;;2.65;1.38;;;17.30;50.40;;;;;;5076367;28;20583;-77
2022/12/23 01:45:41;;;;;;;1.40;1.30;;;17.30;50.40;;;;;;5071375;22;20310;-68
2022/12/23 01:48:10;;;;;;;2.05;1.20;;;17.30;50.20;;;;;;5036169;28;20325;-68
2022/12/23 01:50:38;;;;;;;1.23;1.13;;;17.30;50.60;;;;;;5036373;28;20200;-68
2022/12/23 01:53:06;;;;;;;1.77;1.10;;;17.30;50.40;;;;;;5036900;28;20198;-68
2022/12/23 01:55:36;;;;;;;1.45;1.33;;;17.30;50.60;;;;;;5036440;28;20199;-68
2022/12/23 01:58:07;;;;;;;1.20;1.10;;;17.20;50.50;;;;;;5036002;28;20230;-68
2022/12/23 02:11:51;;;;;;;1.95;1.30;;;17.20;50.50;;;;;;5029226;28;20195;-68
2022/12/23 02:17:10;;;;;;;1.63;1.20;;;17.20;50.40;;;;;;5036220;28;20230;-68
2022/12/23 02:20:04;;;;;;;1.30;1.00;;;17.20;50.80;;;;;;5036457;28;20306;-68
2022/12/23 02:22:41;;;;;;;1.30;1.08;;;17.20;50.80;;;;;;5036182;28;20203;-68
2022/12/23 02:25:20;;;;;;;1.40;1.20;;;17.20;50.80;;;;;;5035680;28;20195;-68
2022/12/23 02:27:54;;;;;;;1.50;1.30;;;17.20;50.80;;;;;;5036271;28;20294;-68
2022/12/23 02:30:34;;;;;;;1.23;1.10;;;17.20;50.80;;;;;;5035750;28;20559;-68
2022/12/23 02:33:15;;;;;;;1.20;1.10;;;17.20;50.70;;;;;;5035707;28;20561;-68
2022/12/23 02:35:45;;;;;;;1.40;1.23;;;17.10;50.80;;;;;;5036502;28;20225;-68
2022/12/23 02:38:14;;;;;;;1.17;1.10;;;17.20;50.90;;;;;;5035484;28;20310;-68
2022/12/23 02:40:44;;;;;;;1.20;1.00;;;17.20;51.00;;;;;;5035545;28;20198;-68
2022/12/23 02:43:13;;;;;;;1.30;1.05;;;17.10;50.90;;;;;;5035556;28;20199;-68
2022/12/23 02:45:44;;;;;;;1.05;1.05;;;17.10;51.00;;;;;;5035296;28;20207;-68
2022/12/23 02:48:13;;;;;;;1.20;1.10;;;17.10;51.00;;;;;;5019575;28;20230;-68
2022/12/23 02:50:40;;;;;;;1.17;1.08;;;17.10;51.00;;;;;;5035403;28;20234;-68
2022/12/23 02:53:20;;;;;;;1.20;1.10;;;17.10;51.00;;;;;;5035642;28;20253;-68
2022/12/23 02:55:47;;;;;;;1.13;1.02;;;17.10;51.10;;;;;;5035520;28;20508;-68
2022/12/23 02:58:15;;;;;;;1.30;1.20;;;17.10;51.00;;;;;;5035881;28;20752;-68
2022/12/23 03:00:43;;;;;;;1.33;1.20;;;17.10;51.00;;;;;;5035693;28;20191;-68
2022/12/23 03:03:10;;;;;;;1.52;1.20;;;17.10;51.20;;;;;;5035823;28;20203;-68
2022/12/23 03:05:39;;;;;;;1.20;1.10;;;17.10;51.00;;;;;;5036265;28;20215;-68
2022/12/23 03:08:07;;;;;;;1.30;1.20;;;17.10;51.10;;;;;;5035941;28;20207;-68
2022/12/23 03:10:38;;;;;;;1.20;1.10;;;17.10;51.10;;;;;;5035734;28;20200;-68
2022/12/23 03:13:10;;;;;;;1.10;1.00;;;17.10;51.20;;;;;;5035878;28;20654;-68
2022/12/23 03:15:41;;;;;;;1.40;1.20;;;17.10;51.10;;;;;;5036512;28;20249;-68
2022/12/23 03:18:12;;;;;;;1.17;1.10;;;17.10;51.00;;;;;;5039903;28;20226;-68
2022/12/23 03:20:42;;;;;;;1.30;1.20;;;17.10;51.10;;;;;;5039190;28;20202;-68
2022/12/23 03:23:14;;;;;;;1.15;0.95;;;17.10;51.10;;;;;;5038970;28;20630;-68
2022/12/23 03:25:43;;;;;;;3.45;1.38;;;17.10;51.10;;;;;;5039985;28;20275;-68
2022/12/23 03:28:13;;;;;;;2.28;1.20;;;17.10;51.20;;;;;;5038807;28;20654;-68
2022/12/23 03:30:41;;;;;;;2.92;1.40;;;17.10;51.00;;;;;;5038936;28;20207;-68
2022/12/23 03:33:12;;;;;;;2.17;1.38;;;17.10;51.00;;;;;;5038889;28;20203;-68
2022/12/23 03:35:41;;;;;;;1.17;1.08;;;17.10;51.00;;;;;;5038662;28;20245;-68
2022/12/23 03:38:08;;;;;;;1.13;1.02;;;17.10;51.00;;;;;;5038396;28;20266;-68
2022/12/23 03:40:36;;;;;;;1.35;1.25;;;17.10;51.10;;;;;;5038726;28;20200;-68
2022/12/23 03:43:04;;;;;;;1.00;1.00;;;17.00;51.00;;;;;;5038677;28;20513;-68
2022/12/23 03:45:34;;;;;;;1.02;1.02;;;17.10;51.10;;;;;;5038718;28;20260;-68
2022/12/23 03:48:02;;;;;;;1.33;1.00;;;17.10;51.00;;;;;;5038810;28;20242;-68
2022/12/23 03:50:31;;;;;;;2.28;1.30;;;17.10;51.10;;;;;;5039031;28;20611;-68
2022/12/23 03:53:00;;;;;;;1.25;1.15;;;17.10;51.10;;;;;;5038760;28;20286;-68
2022/12/23 03:55:29;;;;;;;1.65;1.20;;;17.10;51.10;;;;;;5038400;28;20673;-68
2022/12/23 03:58:00;;;;;;;1.30;1.20;;;17.00;51.10;;;;;;5038528;28;20222;-68
2022/12/23 04:00:28;;;;;;;1.35;1.20;;;17.00;51.20;;;;;;5038896;28;20702;-68
2022/12/23 04:02:57;;;;;;;1.30;1.20;;;17.10;51.20;;;;;;5038823;28;20196;-68
2022/12/23 04:05:26;;;;;;;1.10;1.00;;;17.10;51.20;;;;;;5038873;28;20199;-68
2022/12/23 04:07:58;;;;;;;1.58;1.25;;;17.00;51.10;;;;;;5039021;28;20295;-68
2022/12/23 04:10:26;;;;;;;1.02;0.93;;;17.00;51.10;;;;;;5023331;28;20199;-68
2022/12/23 04:12:53;;;;;;;1.50;1.20;;;17.00;51.70;;;;;;5039405;28;20286;-68
2022/12/23 04:15:21;;;;;;;1.15;1.10;;;17.00;51.20;;;;;;5038539;28;20227;-68
2022/12/23 04:17:48;;;;;;;1.23;1.10;;;17.00;51.20;;;;;;5038169;28;20216;-68
2022/12/23 04:20:15;;;;;;;1.20;1.10;;;17.00;51.20;;;;;;5039188;28;20577;-68
2022/12/23 04:22:43;;;;;;;1.00;1.00;;;17.00;51.20;;;;;;5038160;28;20199;-68
2022/12/23 04:25:11;;;;;;;1.00;1.00;;;17.10;51.10;;;;;;5037851;28;20195;-68
2022/12/23 04:27:38;;;;;;;1.00;1.00;;;17.10;51.00;;;;;;5037362;28;20211;-68
2022/12/23 04:30:08;;;;;;;1.75;1.08;;;17.00;50.80;;;;;;5037892;28;20268;-68
2022/12/23 04:32:36;;;;;;;1.15;1.05;;;17.10;51.00;;;;;;5038159;28;20725;-68
2022/12/23 04:35:03;;;;;;;0.80;0.80;;;17.10;50.90;;;;;;5037806;28;20681;-68
2022/12/23 04:37:30;;;;;;;1.02;0.95;;;17.10;50.70;;;;;;5037758;28;20291;-68
2022/12/23 04:39:57;;;;;;;1.45;1.10;;;17.10;50.60;;;;;;5037633;28;20249;-68
2022/12/23 04:42:26;;;;;;;1.05;1.05;;;17.20;50.60;;;;;;5037493;28;20195;-68
2022/12/23 04:44:52;;;;;;;1.45;0.93;;;17.20;50.50;;;;;;5037945;28;20203;-68
2022/12/23 04:47:20;;;;;;;0.80;0.80;;;17.30;50.40;;;;;;5037410;28;20187;-67
2022/12/23 04:49:47;;;;;;;0.95;0.95;;;17.30;50.40;;;;;;5038161;28;20601;-67
2022/12/23 04:52:14;;;;;;;0.90;0.90;;;17.30;50.40;;;;;;5037276;28;20199;-67
2022/12/23 04:54:41;;;;;;;1.20;1.10;;;17.30;50.40;;;;;;5037156;28;20290;-67
2022/12/23 04:57:08;;;;;;;1.45;1.00;;;17.30;50.40;;;;;;5037282;28;20670;-67
2022/12/23 04:59:37;;;;;;;1.52;1.00;;;17.30;50.30;;;;;;5037150;28;20310;-67
2022/12/23 05:02:04;;;;;;;2.00;1.00;;;17.30;50.30;;;;;;5037373;28;20702;-67
2022/12/23 05:04:31;;;;;;;1.00;1.00;;;17.30;50.50;;;;;;5055161;28;20278;-67
2022/12/23 05:06:58;;;;;;;0.93;0.90;;;17.30;50.50;;;;;;5037118;28;20195;-67
2022/12/23 05:09:26;;;;;;;1.55;0.98;;;17.30;50.40;;;;;;5038708;28;20222;-68
2022/12/23 05:11:53;;;;;;;2.13;1.00;;;17.20;50.40;;;;;;5037194;28;20241;-68
2022/12/23 05:14:20;;;;;;;1.40;0.80;;;17.30;50.50;;;;;;5037067;28;20598;-68
2022/12/23 05:16:48;;;;;;;1.17;1.00;;;17.30;50.50;;;;;;5036984;28;20195;-68
2022/12/23 05:19:15;;;;;;;1.10;1.00;;;17.30;50.50;;;;;;5036566;28;20219;-68
2022/12/23 05:21:42;;;;;;;1.42;0.90;;;17.30;50.40;;;;;;5037174;28;20222;-68
2022/12/23 05:24:09;;;;;;;2.08;1.08;;;17.30;50.40;;;;;;5037516;28;20280;-68
2022/12/23 05:26:37;;;;;;;1.30;1.20;;;17.30;50.40;;;;;;5036948;28;20194;-68
2022/12/23 05:29:04;;;;;;;0.98;0.90;;;17.30;50.40;;;;;;5019902;28;20302;-68
2022/12/23 05:31:32;;;;;;;1.05;0.95;;;17.30;50.30;;;;;;5036574;28;20207;-68
2022/12/23 05:34:00;;;;;;;1.00;1.00;;;17.30;50.30;;;;;;5036305;28;20202;-68
2022/12/23 05:36:27;;;;;;;2.05;1.10;;;17.40;50.40;;;;;;5037058;28;20268;-69
2022/12/23 05:38:54;;;;;;;1.00;1.00;;;17.30;50.20;;;;;;5035574;28;20235;-69
2022/12/23 05:41:21;;;;;;;1.25;0.90;;;17.40;50.40;;;;;;5036508;28;20204;-68
2022/12/23 05:43:48;;;;;;;1.23;1.13;;;17.40;50.40;;;;;;5036159;28;20207;-68
2022/12/23 05:46:15;;;;;;;1.33;1.00;;;17.40;50.40;;;;;;5036504;28;20658;-68
2022/12/23 05:48:42;;;;;;;1.13;0.93;;;17.40;50.20;;;;;;5054234;28;20214;-68
2022/12/23 05:51:11;;;;;;;1.42;0.98;;;17.40;50.60;;;;;;5036089;28;20203;-68
2022/12/23 05:53:37;;;;;;;1.52;1.02;;;17.50;50.80;;;;;;5036216;28;20668;-67
2022/12/23 05:56:06;;;;;;;2.35;1.10;;;17.50;51.00;;;;;;5036271;28;20654;-67
2022/12/23 05:58:33;;;;;;;1.20;1.10;;;17.50;51.20;;;;;;5035852;28;20612;-68
2022/12/23 06:01:01;;;;;;;1.02;1.00;;;17.50;51.30;;;;;;5036376;28;20203;-68
2022/12/23 06:03:28;;;;;;;0.90;0.90;;;17.50;51.50;;;;;;5036001;28;20195;-68
2022/12/23 06:05:55;;;;;;;0.80;0.80;;;17.50;51.50;;;;;;5019887;28;20195;-68
2022/12/23 06:08:24;;;;;;;0.85;0.85;;;17.60;51.50;;;;;;5035888;28;20258;-68
2022/12/23 06:10:51;;;;;;;0.90;0.80;;;17.60;51.70;;;;;;5054454;28;20282;-68
2022/12/23 06:13:18;;;;;;;0.73;0.70;;;17.60;51.70;;;;;;5036306;28;20207;-68
2022/12/23 06:15:45;;;;;;;2.70;1.00;;;17.60;51.60;;;;;;5035889;28;20206;-68
2022/12/23 06:18:12;;;;;;;1.20;1.00;;;17.70;51.90;;;;;;5035752;28;20720;-68
2022/12/23 06:20:38;;;;;;;1.50;1.10;;;17.70;51.30;;;;;;5035713;28;20200;-68
2022/12/23 06:23:05;;;;;;;1.60;0.90;;;17.70;50.60;;;;;;5035611;28;20199;-69
2022/12/23 06:25:34;;;;;;;1.17;0.90;;;17.80;50.00;;;;;;5035662;28;20688;-69
2022/12/23 06:28:01;;;;;;;1.67;0.80;;;17.90;50.00;;;;;;5035396;28;20588;-69
2022/12/23 06:30:29;;;;;;;1.20;0.88;;;17.90;49.80;;;;;;5036041;28;20265;-69
2022/12/23 06:32:56;;;;;;;0.90;0.90;;;17.90;49.70;;;;;;5036705;28;20249;-69
2022/12/23 06:35:23;;;;;;;0.98;0.85;;;18.00;49.70;;;;;;5036297;28;20225;-69
2022/12/23 06:37:52;;;;;;;1.90;0.90;;;18.00;49.50;;;;;;5035917;28;20222;-69
2022/12/23 06:40:20;;;;;;;0.95;0.95;;;18.00;49.40;;;;;;5036320;28;20211;-69
2022/12/23 06:42:48;;;;;;;0.60;0.60;;;18.00;49.40;;;;;;5035960;28;20224;-69
2022/12/23 06:45:15;;;;;;;3.35;1.00;;;18.00;49.50;;;;;;5036286;28;20309;-69
2022/12/23 06:47:42;;;;;;;1.20;1.10;;;18.00;49.40;;;;;;5036886;28;20226;-69
2022/12/23 06:50:09;;;;;;;1.45;1.10;;;18.00;49.50;;;;;;5042387;28;20254;-69
2022/12/23 06:52:36;;;;;;;0.93;0.90;;;18.00;49.70;;;;;;5040860;28;20203;-69
2022/12/23 06:55:04;;;;;;;1.83;1.00;;;17.90;49.80;;;;;;5040427;28;20199;-69
2022/12/23 06:57:31;;;;;;;1.10;1.00;;;17.90;49.70;;;;;;5040107;28;20215;-69
2022/12/23 07:00:00;;;;;;;1.60;1.20;;;17.90;49.70;;;;;;5023455;28;20222;-69
2022/12/23 07:02:26;;;;;;;1.27;1.17;;;17.90;49.80;;;;;;5040237;28;20230;-69
2022/12/23 07:04:54;;;;;;;1.38;1.10;;;17.90;49.80;;;;;;5057545;28;20191;-69
2022/12/23 07:07:22;;;;;;;2.08;1.13;;;18.00;49.80;;;;;;5039451;28;20595;-69
2022/12/23 07:09:48;;;;;;;1.23;1.13;;;18.00;49.80;;;;;;5023248;28;20187;-69
2022/12/23 07:12:18;;;;;;;1.35;0.98;;;18.00;49.70;;;;;;5039320;28;20191;-69
2022/12/23 07:14:45;;;;;;;1.00;1.00;;;17.90;49.70;;;;;;5039816;28;20199;-69
2022/12/23 07:17:13;;;;;;;1.13;1.10;;;18.00;49.70;;;;;;5039391;28;20195;-69
2022/12/23 07:19:41;;;;;;;1.00;1.00;;;18.00;49.70;;;;;;5039402;28;20280;-69
2022/12/23 07:22:09;;;;;;;2.08;1.40;;;18.00;49.80;;;;;;5040108;28;20290;-69
2022/12/23 07:24:36;;;;;;;0.95;0.95;;;18.00;49.70;;;;;;5040014;28;20210;-69
2022/12/23 07:27:03;;;;;;;1.20;1.10;;;18.00;49.80;;;;;;5039306;28;20294;-69
2022/12/23 07:29:30;;;;;;;1.35;0.98;;;18.00;49.80;;;;;;5039480;28;20643;-68
2022/12/23 07:31:57;;;;;;;1.77;1.20;;;18.00;49.80;;;;;;5056960;28;20195;-68
2022/12/23 07:34:26;;;;;;;1.85;1.27;;;18.00;49.80;;;;;;5057101;28;20198;-68
2022/12/23 07:36:53;;;;;;;1.83;1.40;;;18.00;49.70;;;;;;5039695;28;20209;-69
2022/12/23 07:39:20;;;;;;;1.30;1.20;;;17.90;49.60;;;;;;5039219;28;20215;-69
2022/12/23 07:41:47;;;;;;;1.40;1.30;;;18.00;49.70;;;;;;5039395;28;20265;-68
2022/12/23 07:44:15;;;;;;;2.60;1.10;;;18.00;49.70;;;;;;5039032;28;20572;-68
2022/12/23 07:46:42;;;;;;;1.48;1.38;;;18.00;49.60;;;;;;5039077;28;20203;-68
2022/12/23 07:49:09;;;;;;;2.35;1.30;;;18.00;49.50;;;;;;5039269;28;20306;-68
2022/12/23 07:51:39;;;;;;;1.75;1.33;;;18.00;49.50;;;;;;5040084;28;20214;-68
2022/12/23 07:54:06;;;;;;;1.90;1.60;;;18.10;49.50;;;;;;5039166;28;20723;-68
2022/12/23 07:56:34;;;;;;;2.05;1.70;;;18.10;49.50;;;;;;5038890;28;20615;-68
2022/12/23 07:59:01;;;;;;;1.92;1.67;;;18.10;49.40;;;;;;5039127;28;20223;-68
2022/12/23 08:01:28;;;;;;;2.22;1.63;;;18.10;49.50;;;;;;5038327;28;20206;-68
2022/12/23 08:03:55;;;;;;;1.83;1.40;;;18.10;49.40;;;;;;5056841;28;20198;-68
2022/12/23 08:06:22;;;;;;;3.08;1.70;;;18.10;49.40;;;;;;5038878;28;20294;-68
2022/12/23 08:08:51;;;;;;;2.85;1.65;;;18.20;49.40;;;;;;5038476;28;20667;-69
2022/12/23 08:11:18;;;;;;;2.80;1.40;;;18.20;49.40;;;;;;5038821;28;20290;-69
2022/12/23 08:13:47;;;;;;;2.58;1.90;;;18.10;49.20;;;;;;5039631;28;20196;-68
2022/12/23 08:16:14;;;;;;;3.08;1.60;;;18.20;49.30;;;;;;5038976;28;20229;-68
2022/12/23 08:18:41;;;;;;;1.92;1.63;;;18.20;49.10;;;;;;5038914;28;20211;-69
2022/12/23 08:21:08;;;;;;;3.75;1.75;;;18.20;49.10;;;;;;5039194;28;20265;-69
2022/12/23 08:23:36;;;;;;;2.58;1.65;;;18.20;49.30;;;;;;5038870;28;20225;-69
2022/12/23 08:26:05;;;;;;;2.28;1.60;;;18.20;49.20;;;;;;5039631;28;20286;-69
2022/12/23 08:28:32;;;;;;;1.60;1.50;;;18.20;49.90;;;;;;5038782;28;20318;-69
2022/12/23 08:31:04;;;;;;;1.92;1.70;;;18.20;49.20;;;;;;5038921;28;20249;-69
2022/12/23 08:33:31;;;;;;;2.22;1.50;;;18.20;49.30;;;;;;5038351;28;20290;-68
2022/12/23 08:35:58;;;;;;;2.35;1.15;;;18.20;49.30;;;;;;5038272;28;20207;-68
2022/12/23 08:38:25;;;;;;;1.50;1.40;;;18.20;49.40;;;;;;5039108;28;20247;-68
2022/12/23 08:40:52;;;;;;;2.65;1.60;;;18.20;49.20;;;;;;5038103;28;20581;-68
2022/12/23 08:43:21;;;;;;;1.83;1.73;;;18.20;49.10;;;;;;5037884;28;20208;-69
2022/12/23 08:45:48;;;;;;;2.50;2.10;;;18.30;49.10;;;;;;5037923;28;20644;-69
2022/12/23 08:48:15;;;;;;;3.53;2.60;;;18.30;49.00;;;;;;5038898;28;20215;-69
2022/12/23 08:50:44;;;;;;;2.80;2.50;;;18.30;49.00;;;;;;5021462;28;20250;-69
2022/12/23 08:53:11;;;;;;;4.15;2.78;;;18.30;48.90;;;;;;5037814;28;20196;-69
2022/12/23 08:55:38;;;;;;;3.25;2.92;;;18.30;49.00;;;;;;5037691;28;20613;-69
2022/12/23 08:58:06;;;;;;;2.80;2.60;;;18.30;49.00;;;;;;5037303;28;20211;-69
2022/12/23 09:00:35;;;;;;;2.80;2.33;;;18.30;48.90;;;;;;5037393;28;20215;-69
2022/12/23 09:03:02;;;;;;;2.83;2.03;;;18.40;49.00;;;;;;5037652;28;20210;-69
2022/12/23 09:05:29;;;;;;;3.20;1.90;;;18.40;49.00;;;;;;5055199;28;20270;-69
2022/12/23 09:07:56;;;;;;;2.05;1.80;;;18.40;49.00;;;;;;5037527;28;20215;-70
2022/12/23 09:10:23;;;;;;;3.25;1.83;;;18.30;49.00;;;;;;5037431;28;20626;-69
2022/12/23 09:12:51;;;;;;;2.08;1.85;;;18.30;48.90;;;;;;5036353;28;20612;-69
2022/12/23 09:15:18;;;;;;;2.13;1.80;;;18.30;48.90;;;;;;5037200;28;20196;-69
2022/12/23 09:17:46;;;;;;;2.08;1.75;;;18.40;49.10;;;;;;5037250;28;20223;-69
2022/12/23 09:20:13;;;;;;;2.28;2.08;;;18.40;48.90;;;;;;5036984;28;20219;-69
2022/12/23 09:22:40;;;;;;;2.30;2.10;;;18.40;49.00;;;;;;5037236;28;20214;-68
2022/12/23 09:25:09;;;;;;;2.28;2.08;;;18.40;49.20;;;;;;5037194;28;20654;-68
2022/12/23 09:27:37;;;;;;;2.38;2.17;;;18.40;49.00;;;;;;5038604;28;20606;-68
2022/12/23 09:30:05;;;;;;;3.35;2.13;;;18.40;49.00;;;;;;5022148;28;20238;-68
2022/12/23 09:32:32;;;;;;;2.10;1.90;;;18.40;48.90;;;;;;5037438;28;20273;-68
2022/12/23 09:35:01;;;;;;;1.80;1.70;;;18.40;48.90;;;;;;5037059;28;20231;-68
2022/12/23 09:37:28;;;;;;;1.95;1.73;;;18.40;49.00;;;;;;5037887;28;20230;-69
2022/12/23 09:39:55;;;;;;;3.03;1.65;;;18.50;49.00;;;;;;5036776;28;20219;-69
2022/12/23 09:42:28;;;;;;;2.92;1.88;;;18.50;49.00;;;;;;5036633;28;20257;-69
2022/12/23 09:45:11;;;;;;;1.73;1.63;;;18.40;49.00;;;;;;5036664;28;20211;-69
2022/12/23 09:47:38;;;;;;;1.80;1.70;;;18.50;49.00;;;;;;5037144;28;20568;-69
2022/12/23 09:50:10;;;;;;;2.00;1.80;;;18.50;49.00;;;;;;5037299;28;20199;-69
2022/12/23 09:52:40;;;;;;;2.40;1.98;;;18.50;49.00;;;;;;5036315;28;20196;-69
2022/12/23 09:55:09;;;;;;;2.10;1.90;;;18.50;49.00;;;;;;5036469;28;20223;-69
2022/12/23 09:57:37;;;;;;;1.75;1.52;;;18.50;49.00;;;;;;5036448;28;20215;-69
2022/12/23 10:00:10;;;;;;;1.70;1.60;;;18.50;49.00;;;;;;5035975;28;20212;-69
2022/12/23 10:02:55;;;;;;;1.73;1.63;;;18.50;49.00;;;;;;5036039;28;20646;-69
2022/12/23 10:05:29;;;;;;;1.63;1.48;;;18.60;48.90;;;;;;5036075;28;20209;-69
2022/12/23 10:07:58;;;;;;;1.70;1.60;;;18.60;48.90;;;;;;5035906;28;20264;-69
2022/12/23 10:10:29;;;;;;;2.30;1.70;;;18.60;49.00;;;;;;5036057;28;20191;-69
2022/12/23 10:12:58;;;;;;;2.35;1.70;;;18.60;49.10;;;;;;5035773;28;20681;-69
2022/12/23 10:15:28;;;;;;;2.13;1.60;;;18.60;49.10;;;;;;5035893;28;20195;-69
2022/12/23 10:17:57;;;;;;;3.00;2.03;;;18.60;48.90;;;;;;5035940;28;20230;-69
2022/12/23 10:20:31;;;;;;;2.35;2.20;;;18.60;48.90;;;;;;5035760;28;20690;-69
2022/12/23 10:22:58;;;;;;;1.60;1.50;;;18.60;48.80;;;;;;5035748;28;20222;-69
2022/12/23 10:25:28;;;;;;;1.55;1.45;;;18.60;49.00;;;;;;5035489;28;20199;-69
2022/12/23 10:27:55;;;;;;;1.63;1.52;;;18.60;48.90;;;;;;5035560;28;20238;-69
2022/12/23 10:30:23;;;;;;;5.53;3.30;;;18.60;49.10;;;;;;5035987;28;20200;-69
2022/12/23 10:32:59;;;;;;;4.05;3.75;;;18.60;49.00;;;;;;5035600;28;20646;-68
2022/12/23 10:35:52;;;;;;;3.45;3.00;;;18.60;49.20;;;;;;5035971;28;20275;-68
2022/12/23 10:38:29;;;;;;;3.10;2.90;;;18.60;49.10;;;;;;5031569;28;20219;-68
2022/12/23 10:40:59;;;;;;;3.35;3.05;;;18.60;49.10;;;;;;5035675;28;20215;-68
2022/12/23 10:43:30;;;;;;;2.60;2.40;;;18.60;49.10;;;;;;5036045;28;20214;-68
2022/12/23 10:45:59;;;;;;;2.53;2.35;;;18.60;49.10;;;;;;5035565;28;20207;-69
2022/12/23 10:48:33;;;;;;;2.47;2.28;;;18.60;49.10;;;;;;5035674;28;20219;-69
2022/12/23 10:51:03;;;;;;;2.30;2.20;;;18.60;49.00;;;;;;5036305;28;20584;-69
2022/12/23 10:53:35;;;;;;;3.30;2.80;;;18.70;49.20;;;;;;5035397;28;20203;-69
2022/12/23 10:56:02;;;;;;;3.13;2.30;;;18.60;48.90;;;;;;5035449;28;20200;-69
2022/12/23 10:58:29;;;;;;;2.25;2.13;;;18.70;48.90;;;;;;5035528;28;20230;-69
2022/12/23 11:00:57;;;;;;;2.58;2.28;;;18.80;48.80;;;;;;5035658;28;20211;-69
2022/12/23 11:03:27;;;;;;;1.85;1.75;;;18.80;48.80;;;;;;5035344;28;20606;-69
2022/12/23 11:05:55;;;;;;;1.70;1.60;;;18.80;48.80;;;;;;5035545;28;20238;-69
2022/12/23 11:08:23;;;;;;;2.47;1.80;;;18.80;48.80;;;;;;5053123;28;20218;-69
2022/12/23 11:10:51;;;;;;;1.70;1.60;;;18.80;48.80;;;;;;5035466;28;20196;-69
2022/12/23 11:13:24;;;;;;;1.75;1.65;;;18.80;48.90;;;;;;5035343;28;20195;-69
2022/12/23 11:15:52;;;;;;;1.63;1.52;;;18.80;49.20;;;;;;5035334;28;20210;-69
2022/12/23 11:18:19;;;;;;;1.40;1.30;;;18.70;49.20;;;;;;5035182;28;20215;-69
2022/12/23 11:21:02;;;;;;;1.60;1.50;;;18.80;49.20;;;;;;5035659;28;20215;-69
2022/12/23 11:23:31;;;;;;;1.60;1.50;;;18.80;49.00;;;;;;5035190;28;20571;-69
2022/12/23 11:26:00;;;;;;;1.92;1.80;;;18.80;48.80;;;;;;5035329;28;20203;-69
2022/12/23 11:28:27;;;;;;;1.77;1.63;;;18.80;49.00;;;;;;5034967;28;20219;-69
2022/12/23 11:30:55;;;;;;;1.50;1.40;;;18.90;48.80;;;;;;5035295;28;20199;-69
2022/12/23 11:33:25;;;;;;;1.70;1.60;;;18.90;48.80;;;;;;5053388;28;20187;-69
2022/12/23 11:36:00;;;;;;;2.00;1.30;;;18.90;49.00;;;;;;5035200;28;20565;-69
2022/12/23 11:38:27;;;;;;;3.00;2.80;;;18.80;49.10;;;;;;5038884;28;20234;-69
2022/12/23 11:40:56;;;;;;;1.77;1.67;;;18.90;48.90;;;;;;5038893;28;20241;-69
2022/12/23 11:43:23;;;;;;;1.70;1.60;;;18.90;49.20;;;;;;5038851;28;20566;-69
2022/12/23 11:45:50;;;;;;;1.50;1.40;;;18.90;48.80;;;;;;5022453;28;20272;-69
2022/12/23 11:48:27;;;;;;;1.40;1.30;;;18.90;49.40;;;;;;5038537;28;20226;-69
2022/12/23 11:50:58;;;;;;;1.35;1.25;;;18.90;48.80;;;;;;5040042;28;20237;-69
2022/12/23 11:53:45;;;;;;;1.40;1.23;;;18.90;48.80;;;;;;5056973;28;20187;-69
2022/12/23 11:56:13;;;;;;;1.40;1.30;;;18.90;48.80;;;;;;5039102;28;20196;-69
2022/12/23 11:58:45;;;;;;;1.50;1.38;;;19.00;48.80;;;;;;5038987;28;20564;-69
2022/12/23 12:01:15;;;;;;;2.47;1.35;;;18.90;48.80;;;;;;5039642;28;20222;-69
2022/12/23 12:03:45;;;;;;;1.50;1.40;;;19.00;49.10;;;;;;5038888;28;20206;-69
2022/12/23 12:06:13;;;;;;;1.75;1.42;;;19.00;49.00;;;;;;5039997;28;20199;-69
2022/12/23 12:08:41;;;;;;;1.40;1.30;;;19.00;48.90;;;;;;5041447;28;20254;-69
2022/12/23 12:11:12;;;;;;;1.30;1.20;;;19.00;48.70;;;;;;5038819;28;20677;-68
2022/12/23 12:13:41;;;;;;;1.83;1.40;;;19.00;48.80;;;;;;5039439;28;20196;-69
2022/12/23 12:16:28;;;;;;;1.58;1.10;;;19.00;48.90;;;;;;5038444;28;20723;-68
2022/12/23 12:18:55;;;;;;;1.40;1.30;;;19.00;49.00;;;;;;5038467;28;20253;-68
2022/12/23 12:21:23;;;;;;;1.75;1.25;;;19.00;49.00;;;;;;5038267;28;20219;-69
2022/12/23 12:23:51;;;;;;;1.60;1.50;;;19.00;48.80;;;;;;5038933;28;20202;-69
2022/12/23 12:26:22;;;;;;;1.70;1.60;;;19.00;48.90;;;;;;5038246;28;20206;-69
2022/12/23 12:28:53;;;;;;;1.33;1.25;;;19.00;48.90;;;;;;5038784;28;20279;-69
2022/12/23 12:31:22;;;;;;;1.48;1.38;;;19.00;48.70;;;;;;5039056;28;20199;-68
2022/12/23 12:33:51;;;;;;;1.60;1.20;;;19.00;49.10;;;;;;5039064;28;20658;-69
2022/12/23 12:36:22;;;;;;;1.20;1.10;;;19.00;49.00;;;;;;5046251;28;20230;-69
2022/12/23 12:38:49;;;;;;;1.77;1.10;;;19.00;49.10;;;;;;5058926;28;20326;-69
2022/12/23 12:41:17;;;;;;;1.65;1.20;;;19.00;49.00;;;;;;5065162;28;20222;-69
2022/12/23 12:43:47;;;;;;;1.58;1.48;;;19.00;49.10;;;;;;5038439;28;20672;-69
2022/12/23 12:46:24;;;;;;;1.20;1.20;;;19.00;49.00;;;;;;5038082;28;20214;-69
2022/12/23 12:48:53;;;;;;;2.10;1.50;;;19.00;49.10;;;;;;5037733;28;20302;-69
2022/12/23 12:51:22;;;;;;;2.20;1.40;;;19.00;49.20;;;;;;5038060;28;20203;-69
2022/12/23 12:54:04;;;;;;;1.40;1.30;;;18.90;49.10;;;;;;5021908;28;20552;-69
2022/12/23 12:56:35;;;;;;;1.17;1.17;;;19.00;49.30;;;;;;5038601;28;20182;-69
2022/12/23 12:59:02;;;;;;;1.20;1.20;;;19.00;49.20;;;;;;5037878;28;20211;-69
2022/12/23 13:01:38;;;;;;;1.33;1.23;;;19.00;49.10;;;;;;5037445;28;20261;-69
2022/12/23 13:04:29;;;;;;;1.30;1.20;;;19.00;49.20;;;;;;5037472;28;20203;-69
2022/12/23 13:06:59;;;;;;;1.05;1.05;;;18.90;49.00;;;;;;5024661;28;20291;-69
2022/12/23 13:09:29;;;;;;;1.50;1.40;;;19.00;49.10;;;;;;5037240;28;20234;-69
2022/12/23 13:11:59;;;;;;;1.55;1.45;;;18.90;48.90;;;;;;5036934;28;20261;-69
2022/12/23 13:14:32;;;;;;;1.40;1.30;;;18.90;49.00;;;;;;5036961;28;20196;-69
2022/12/23 13:17:03;;;;;;;1.70;1.58;;;18.90;49.30;;;;;;5037337;28;20551;-69
2022/12/23 13:19:36;;;;;;;1.50;1.40;;;18.90;48.90;;;;;;5037495;28;20219;-69
2022/12/23 13:22:07;;;;;;;1.40;1.30;;;18.90;49.00;;;;;;5037043;28;20208;-69
2022/12/23 13:24:47;;;;;;;1.33;1.23;;;18.90;49.20;;;;;;5037168;28;20204;-68
2022/12/23 13:27:17;;;;;;;2.60;1.35;;;18.90;49.30;;;;;;5037867;28;20202;-68